Time;durP1;ratioP1;P1;durP2;ratioP2;P2;SDS_P1;SDS_P2;PMS_P1;PMS_P2;Temp;Humidity;BMP_temperature;BMP_pressure;BME280_temperature;BME280_humidity;BME280_pressure;Samples;Min_cycle;Max_cycle;Signal;HPM_P1;HPM_P2
2023/05/05 00:02:20;;;;;;;21.40;17.25;;;307.40;2304.00;;;;;;5029170;28;20475;-64
2023/05/05 00:04:46;;;;;;;40.15;27.77;;;307.20;2304.00;;;;;;5029199;28;20038;-70
2023/05/05 00:07:11;;;;;;;38.47;25.83;;;282.40;2278.40;;;;;;5029182;28;20026;-59
2023/05/05 00:09:37;;;;;;;40.42;27.58;;;282.20;2278.40;;;;;;5029105;28;20061;-60
2023/05/05 00:12:03;;;;;;;41.03;27.88;;;282.10;2278.40;;;;;;5029625;28;20104;-59
2023/05/05 00:14:29;;;;;;;43.60;29.25;;;282.00;2278.40;;;;;;5029041;28;20033;-61
2023/05/05 00:16:54;;;;;;;34.40;25.50;;;282.00;2278.40;;;;;;5028985;28;20018;-61
2023/05/05 00:19:20;;;;;;;26.85;19.58;;;281.90;2278.40;;;;;;5028973;28;20026;-64
2023/05/05 00:21:46;;;;;;;29.45;21.45;;;281.90;2048.00;;;;;;5028981;28;20072;-69
2023/05/05 00:24:12;;;;;;;43.80;28.88;;;282.00;1945.60;;;;;;5043584;28;20036;-60
2023/05/05 00:26:37;;;;;;;21.83;17.90;;;282.20;2278.40;;;;;;5049109;28;20375;-59
2023/05/05 00:29:03;;;;;;;21.35;17.40;;;282.30;2278.40;;;;;;5049100;28;20104;-59
2023/05/05 00:31:29;;;;;;;45.85;29.65;;;282.40;2278.40;;;;;;5048619;28;20411;-62
2023/05/05 00:33:55;;;;;;;31.92;22.83;;;282.40;2278.40;;;;;;5049038;28;20021;-62
2023/05/05 00:36:20;;;;;;;31.92;22.25;;;282.50;2278.40;;;;;;5039800;28;20025;-60
2023/05/05 00:38:46;;;;;;;52.53;32.20;;;282.30;2278.40;;;;;;5029234;28;20025;-59
2023/05/05 00:41:12;;;;;;;73.78;41.05;;;282.40;2278.40;;;;;;5041983;28;20479;-62
2023/05/05 00:43:37;;;;;;;36.95;25.85;;;282.40;2278.40;;;;;;5015914;28;20025;-60
2023/05/05 00:46:16;;;;;;;65.22;40.28;;;282.40;2278.40;;;;;;5028631;28;20037;-61
2023/05/05 00:48:42;;;;;;;68.07;38.30;;;282.50;2278.40;;;;;;5037587;28;20024;-60
2023/05/05 00:51:09;;;;;;;83.03;46.65;;;282.50;2278.40;;;;;;5048452;28;20037;-61
2023/05/05 00:53:35;;;;;;;62.67;36.20;;;282.50;2278.40;;;;;;5048987;28;20420;-61
2023/05/05 00:56:01;;;;;;;44.45;28.35;;;282.50;2278.40;;;;;;5034973;28;20049;-60
2023/05/05 00:58:28;;;;;;;41.15;26.80;;;282.50;2278.40;;;;;;5048759;28;20021;-60
2023/05/05 01:00:54;;;;;;;24.95;18.55;;;282.50;2278.40;;;;;;5048645;28;20395;-61
2023/05/05 01:03:20;;;;;;;33.45;21.35;;;282.50;2278.40;;;;;;5050706;28;20017;-60
2023/05/05 01:06:04;;;;;;;28.02;21.33;;;282.50;2278.40;;;;;;5052796;28;20033;-59
2023/05/05 01:09:00;;;;;;;63.67;39.03;;;282.50;2278.40;;;;;;5052663;28;20518;-64
2023/05/05 01:11:50;;;;;;;47.38;31.08;;;282.50;2278.40;;;;;;5051135;28;20049;-61
2023/05/05 01:14:21;;;;;;;43.97;27.73;;;307.20;2304.00;;;;;;5051928;28;20021;-61
2023/05/05 01:17:00;;;;;;;45.30;30.90;;;282.50;2278.40;;;;;;5052395;28;20445;-63
2023/05/05 01:20:05;;;;;;;29.73;22.02;;;307.20;2304.00;;;;;;5040347;28;20471;-61
2023/05/05 01:22:39;;;;;;;38.17;24.85;;;282.50;2278.40;;;;;;5051972;28;20032;-60
2023/05/05 01:25:48;;;;;;;53.72;32.80;;;282.50;2278.40;;;;;;5052487;28;20113;-61
2023/05/05 01:28:22;;;;;;;58.55;35.92;;;282.50;2278.40;;;;;;5030801;28;20021;-61
2023/05/05 01:31:15;;;;;;;35.88;26.05;;;307.30;2304.00;;;;;;5051590;28;20013;-60
2023/05/05 01:33:48;;;;;;;155.63;88.30;;;282.50;2278.40;;;;;;5051656;28;20486;-61
2023/05/05 01:36:24;;;;;;;85.38;45.50;;;282.50;2278.40;;;;;;5051839;28;20021;-62
2023/05/05 01:38:55;;;;;;;46.78;30.45;;;282.50;2278.40;;;;;;5051929;28;20486;-61
2023/05/05 01:41:25;;;;;;;24.73;18.40;;;282.50;2278.40;;;;;;5051835;28;20534;-61
2023/05/05 01:43:53;;;;;;;19.10;16.83;;;282.40;2278.40;;;;;;5051471;28;20115;-61
2023/05/05 01:46:22;;;;;;;61.75;36.55;;;282.40;2278.40;;;;;;5051790;28;20056;-61
2023/05/05 01:48:50;;;;;;;25.83;18.23;;;282.50;2278.40;;;;;;5051577;28;20096;-61
2023/05/05 01:51:20;;;;;;;24.05;18.15;;;282.40;2278.40;;;;;;5051616;28;20711;-61
2023/05/05 01:53:46;;;;;;;29.23;23.02;;;282.40;2278.40;;;;;;5051537;28;20025;-61
2023/05/05 01:56:14;;;;;;;51.42;35.13;;;282.30;2278.40;;;;;;5051717;28;20048;-60
2023/05/05 01:58:43;;;;;;;256.38;134.50;;;282.30;2278.40;;;;;;5051758;28;20045;-60
2023/05/05 02:01:10;;;;;;;94.45;49.55;;;282.40;2278.40;;;;;;5050987;28;20493;-62
2023/05/05 02:03:37;;;;;;;26.92;20.30;;;282.30;2278.40;;;;;;5051232;28;20025;-60
2023/05/05 02:06:06;;;;;;;21.67;17.35;;;282.30;2278.40;;;;;;5051752;28;20448;-60
2023/05/05 02:08:33;;;;;;;28.30;21.50;;;282.30;2278.40;;;;;;5051421;28;20481;-60
2023/05/05 02:11:00;;;;;;;23.73;17.23;;;282.30;2278.40;;;;;;5051399;28;20021;-61
2023/05/05 02:13:27;;;;;;;23.58;17.35;;;282.30;2278.40;;;;;;5051411;28;20367;-60
2023/05/05 02:15:54;;;;;;;141.50;76.65;;;282.20;2278.40;;;;;;5050950;28;20043;-59
2023/05/05 02:18:22;;;;;;;58.78;34.53;;;282.20;2278.40;;;;;;5051102;28;20367;-61
2023/05/05 02:20:48;;;;;;;49.90;32.50;;;282.20;2278.40;;;;;;5051070;28;20029;-62
2023/05/05 02:23:13;;;;;;;43.55;26.77;;;282.20;2278.40;;;;;;5051415;28;20107;-61
2023/05/05 02:25:48;;;;;;;38.35;25.65;;;282.20;2278.40;;;;;;5050457;28;20029;-61
2023/05/05 02:28:30;;;;;;;42.00;27.90;;;282.20;2278.40;;;;;;5048193;28;20024;-61
2023/05/05 02:30:58;;;;;;;45.92;30.45;;;282.20;2278.40;;;;;;5050425;28;20033;-60
2023/05/05 02:33:26;;;;;;;39.17;26.48;;;282.20;2278.40;;;;;;5050845;28;20025;-60
2023/05/05 02:35:55;;;;;;;32.70;22.67;;;282.20;2278.40;;;;;;5045676;28;20025;-62
2023/05/05 02:38:26;;;;;;;35.75;24.10;;;282.20;2278.40;;;;;;5043378;28;20033;-60
2023/05/05 02:40:55;;;;;;;28.98;20.85;;;282.20;2278.40;;;;;;5043475;28;20039;-61
2023/05/05 02:43:23;;;;;;;37.80;24.70;;;282.20;2278.40;;;;;;5050381;28;20479;-63
2023/05/05 02:45:49;;;;;;;20.30;16.67;;;282.10;2278.40;;;;;;5030635;28;20037;-59
2023/05/05 02:48:15;;;;;;;22.38;17.48;;;282.00;2278.40;;;;;;5043883;28;20032;-67
2023/05/05 02:50:40;;;;;;;36.60;23.05;;;282.10;2278.40;;;;;;5037418;28;20083;-72
2023/05/05 02:53:06;;;;;;;25.02;19.55;;;281.90;2278.40;;;;;;5050957;28;20363;-66
2023/05/05 02:55:46;;;;;;;24.02;18.30;;;281.90;2278.40;;;;;;5037270;28;20044;-60
2023/05/05 02:58:43;;;;;;;25.40;19.48;;;281.90;2278.40;;;;;;5050158;28;20029;-67
2023/05/05 03:01:36;;;;;;;31.08;22.08;;;282.00;2278.40;;;;;;4969180;28;20113;-60
2023/05/05 03:04:16;;;;;;;57.55;32.10;;;282.00;2278.40;;;;;;4969364;28;20493;-60
2023/05/05 03:06:46;;;;;;;61.20;39.03;;;282.10;2278.40;;;;;;4968744;28;20449;-60
2023/05/05 03:09:28;;;;;;;47.60;32.03;;;282.10;2278.40;;;;;;4969263;28;20030;-60
2023/05/05 03:12:03;;;;;;;22.02;18.63;;;282.10;2278.40;;;;;;4969511;28;20049;-63
2023/05/05 03:14:34;;;;;;;61.80;34.95;;;282.10;2278.40;;;;;;4968370;28;20043;-61
2023/05/05 03:17:01;;;;;;;36.08;24.27;;;282.00;2278.40;;;;;;4969160;28;20031;-60
2023/05/05 03:19:29;;;;;;;29.10;22.20;;;282.00;2278.40;;;;;;4969289;28;20058;-62
2023/05/05 03:21:55;;;;;;;31.08;22.88;;;282.10;2278.40;;;;;;4968968;28;20035;-60
2023/05/05 03:24:21;;;;;;;38.20;23.75;;;282.10;2278.40;;;;;;4968478;28;20050;-60
2023/05/05 03:26:48;;;;;;;23.40;17.92;;;282.20;2278.40;;;;;;4968189;28;20038;-62
2023/05/05 03:29:14;;;;;;;20.92;17.30;;;282.20;2278.40;;;;;;4968730;28;20026;-60
2023/05/05 03:31:40;;;;;;;28.33;20.38;;;282.20;2278.40;;;;;;4968443;28;20030;-61
2023/05/05 03:34:06;;;;;;;24.77;18.83;;;282.20;2278.40;;;;;;4968784;28;20074;-60
2023/05/05 03:36:33;;;;;;;21.38;17.42;;;282.10;2278.40;;;;;;4968518;28;20070;-59
2023/05/05 03:38:58;;;;;;;97.30;57.00;;;282.10;2278.40;;;;;;5035474;28;20034;-71
2023/05/05 03:41:24;;;;;;;66.90;43.70;;;282.20;2278.40;;;;;;5041132;28;20356;-60
2023/05/05 03:43:50;;;;;;;27.80;23.98;;;282.00;2278.40;;;;;;5049141;28;20102;-63
2023/05/05 03:46:16;;;;;;;23.58;20.65;;;282.10;2278.40;;;;;;5049443;28;20029;-65
2023/05/05 03:48:42;;;;;;;26.55;20.33;;;282.10;2278.40;;;;;;5049515;28;20025;-59
2023/05/05 03:51:07;;;;;;;25.40;18.77;;;282.20;2278.40;;;;;;5049415;28;20043;-60
2023/05/05 03:53:34;;;;;;;22.60;17.92;;;282.20;2278.40;;;;;;5049317;28;20124;-61
2023/05/05 03:56:00;;;;;;;22.58;18.13;;;282.40;2278.40;;;;;;5049252;28;20037;-61
2023/05/05 03:58:25;;;;;;;34.90;30.48;;;282.40;2278.40;;;;;;5049696;28;20047;-61
2023/05/05 04:00:51;;;;;;;21.73;18.27;;;282.50;2278.40;;;;;;5049255;28;20415;-60
2023/05/05 04:03:17;;;;;;;23.85;21.02;;;307.20;2304.00;;;;;;5049031;28;20029;-61
2023/05/05 04:05:43;;;;;;;31.15;20.17;;;307.40;2304.00;;;;;;5049717;28;20186;-61
2023/05/05 04:08:08;;;;;;;21.73;18.00;;;307.40;2304.00;;;;;;5049288;28;20054;-60
2023/05/05 04:10:34;;;;;;;24.30;18.65;;;307.50;2304.00;;;;;;5049182;28;20360;-61
2023/05/05 04:13:00;;;;;;;23.30;18.30;;;307.60;2304.00;;;;;;5048856;28;20024;-69
2023/05/05 04:15:26;;;;;;;24.48;17.77;;;307.70;2304.00;;;;;;5048830;28;20478;-60
2023/05/05 04:17:52;;;;;;;23.85;20.92;;;307.90;2304.00;;;;;;5049020;28;20025;-62
2023/05/05 04:20:18;;;;;;;22.00;18.80;;;332.80;2329.60;;;;;;5049244;28;20029;-60
2023/05/05 04:22:44;;;;;;;21.08;18.38;;;333.00;2329.60;;;;;;5048855;28;20032;-60
2023/05/05 04:25:10;;;;;;;21.85;19.23;;;332.90;2329.60;;;;;;5048834;28;20591;-60
2023/05/05 04:27:36;;;;;;;22.85;17.27;;;333.10;2329.60;;;;;;5049091;28;20036;-59
2023/05/05 04:30:01;;;;;;;22.08;18.10;;;333.20;2329.60;;;;;;5048731;28;20107;-59
2023/05/05 04:32:27;;;;;;;24.20;19.38;;;333.40;2329.60;;;;;;5048653;28;20032;-60
2023/05/05 04:34:53;;;;;;;20.95;18.75;;;333.60;2329.60;;;;;;5048793;28;20029;-59
2023/05/05 04:37:18;;;;;;;22.15;19.67;;;333.70;2329.60;;;;;;5051043;28;20023;-60
2023/05/05 04:39:45;;;;;;;26.27;17.85;;;358.40;2329.60;;;;;;5052939;28;20037;-59
2023/05/05 04:42:11;;;;;;;23.52;17.10;;;333.60;2329.60;;;;;;5052453;28;20028;-66
2023/05/05 04:44:37;;;;;;;26.02;20.92;;;333.30;2329.60;;;;;;5052753;28;20041;-60
2023/05/05 04:47:03;;;;;;;123.22;97.95;;;333.10;2329.60;;;;;;5041838;28;20083;-60
2023/05/05 04:49:29;;;;;;;56.90;44.75;;;333.30;2329.60;;;;;;5047029;28;20036;-60
2023/05/05 04:51:54;;;;;;;40.30;36.08;;;333.50;2329.60;;;;;;5041299;28;20071;-62
2023/05/05 04:54:20;;;;;;;42.22;32.30;;;358.50;2329.60;;;;;;5052432;28;20049;-61
2023/05/05 04:56:46;;;;;;;43.47;23.30;;;359.10;2329.60;;;;;;5053182;28;20032;-62
2023/05/05 04:59:12;;;;;;;32.33;20.02;;;;;;;;;;5052089;28;20040;-62
2023/05/05 05:01:38;;;;;;;24.70;17.52;;;;;;;;;;5038017;28;20100;-60
2023/05/05 05:04:05;;;;;;;22.70;19.30;;;;;;;;;;5052109;28;20398;-61
2023/05/05 05:06:31;;;;;;;18.80;16.88;;;;;;;;;;5052013;28;20025;-60
2023/05/05 05:08:57;;;;;;;30.80;27.80;;;;;;;;;;5052325;28;20486;-63
2023/05/05 05:11:23;;;;;;;88.93;80.35;;;;;;;;;;5052135;28;20036;-61
2023/05/05 05:13:49;;;;;;;59.30;52.42;;;;;;;;;;5051051;28;20599;-57
2023/05/05 05:16:15;;;;;;;33.13;29.75;;;;;;;;;;5039421;28;20025;-61
2023/05/05 05:18:41;;;;;;;25.17;16.10;;;615.10;1843.20;;;;;;5052319;28;20079;-60
2023/05/05 05:21:07;;;;;;;18.10;15.05;;;;;;;;;;5052253;28;20029;-61
2023/05/05 05:23:33;;;;;;;25.20;18.27;;;;;;;;;;5051952;28;20398;-60
2023/05/05 05:25:59;;;;;;;17.67;15.40;;;666.30;1689.60;;;;;;5038470;28;20478;-60
2023/05/05 05:28:25;;;;;;;71.75;42.03;;;666.30;1664.00;;;;;;5048987;28;20032;-65
2023/05/05 05:30:51;;;;;;;32.53;21.80;;;666.20;1689.60;;;;;;5041663;28;20029;-60
2023/05/05 05:33:17;;;;;;;166.05;150.93;;;691.20;1664.00;;;;;;5052047;28;20467;-60
2023/05/05 05:35:43;;;;;;;29.38;26.48;;;691.30;1638.40;;;;;;5052461;28;20471;-60
2023/05/05 05:38:09;;;;;;;20.23;17.27;;;;;;;;;;5051814;28;20078;-60
2023/05/05 05:40:35;;;;;;;18.33;16.33;;;;;;;;;;5051874;28;20029;-62
2023/05/05 05:43:02;;;;;;;14.55;13.05;;;716.80;1612.80;;;;;;5051423;28;20029;-61
2023/05/05 05:45:27;;;;;;;19.52;14.70;;;717.30;1587.20;;;;;;5051899;28;20033;-60
2023/05/05 05:47:53;;;;;;;21.10;14.43;;;717.20;1587.20;;;;;;5051522;28;20052;-62
2023/05/05 05:50:20;;;;;;;21.38;15.68;;;717.60;1561.60;;;;;;5041957;28;20030;-64
2023/05/05 05:52:46;;;;;;;14.73;13.23;;;;;;;;;;5040867;28;20029;-60
2023/05/05 05:55:12;;;;;;;16.10;14.50;;;768.10;1510.40;;;;;;5037644;28;20060;-60
2023/05/05 05:57:38;;;;;;;22.58;17.88;;;743.10;1536.00;;;;;;5051753;28;20474;-61
2023/05/05 06:00:05;;;;;;;17.38;14.57;;;742.70;1587.20;;;;;;5050947;28;20040;-62
2023/05/05 06:02:31;;;;;;;21.02;16.48;;;743.00;1536.00;;;;;;5051364;28;20031;-60
2023/05/05 06:04:57;;;;;;;16.92;15.30;;;768.50;1510.40;;;;;;5051476;28;20037;-60
2023/05/05 06:07:22;;;;;;;18.38;15.68;;;794.20;1459.20;;;;;;5051318;28;20357;-60
2023/05/05 06:09:48;;;;;;;17.23;15.48;;;794.50;1433.60;;;;;;5051088;28;20083;-62
2023/05/05 06:12:14;;;;;;;17.45;15.65;;;794.20;1459.20;;;;;;5041335;28;20021;-63
2023/05/05 06:14:40;;;;;;;20.20;16.58;;;;;;;;;;5030693;28;20032;-64
2023/05/05 06:17:05;;;;;;;17.08;15.35;;;768.60;1484.80;;;;;;5033432;28;20032;-65
2023/05/05 06:19:31;;;;;;;17.58;14.43;;;768.20;1484.80;;;;;;5050966;28;20029;-60
2023/05/05 06:21:57;;;;;;;16.27;14.63;;;768.10;1510.40;;;;;;5048756;28;20040;-62
2023/05/05 06:24:23;;;;;;;16.52;14.77;;;742.70;1561.60;;;;;;5048720;28;20202;-60
2023/05/05 06:26:49;;;;;;;18.88;15.98;;;;;;;;;;5034648;28;20056;-59
2023/05/05 06:29:15;;;;;;;20.58;18.33;;;;;;;;;;5030805;28;20017;-62
2023/05/05 06:31:41;;;;;;;16.20;14.52;;;;;;;;;;5030810;28;20041;-61
2023/05/05 06:34:07;;;;;;;20.10;16.52;;;;;;;;;;5031317;28;20419;-59
2023/05/05 06:36:33;;;;;;;17.48;15.27;;;819.80;1408.00;;;;;;5030779;28;20104;-62
2023/05/05 06:38:59;;;;;;;20.77;17.33;;;819.80;1408.00;;;;;;5030755;28;20109;-60
2023/05/05 06:41:24;;;;;;;16.90;15.18;;;845.00;1408.00;;;;;;5032050;28;20430;-61
2023/05/05 06:43:50;;;;;;;19.52;17.42;;;845.20;1382.40;;;;;;5050537;28;20033;-61
2023/05/05 06:46:16;;;;;;;24.10;21.92;;;;;;;;;;5050537;28;20032;-61
2023/05/05 06:48:42;;;;;;;19.98;17.80;;;;;;;;;;5050578;28;20021;-61
2023/05/05 06:51:08;;;;;;;21.85;19.67;;;845.70;1382.40;;;;;;5050344;28;20395;-60
2023/05/05 06:53:34;;;;;;;19.23;17.15;;;845.00;1433.60;;;;;;5050718;28;20025;-61
2023/05/05 06:56:00;;;;;;;15.75;14.13;;;845.00;1408.00;;;;;;5037285;28;20058;-63
2023/05/05 06:58:25;;;;;;;22.27;20.23;;;794.30;1459.20;;;;;;5030579;28;20065;-61
2023/05/05 07:00:52;;;;;;;16.30;14.73;;;820.10;1408.00;;;;;;5028879;28;20026;-62
2023/05/05 07:03:18;;;;;;;15.00;13.50;;;820.00;1433.60;;;;;;5023804;28;20033;-67
2023/05/05 07:05:44;;;;;;;15.55;14.00;;;;;;;;;;5032565;28;20438;-65
2023/05/05 07:08:10;;;;;;;15.75;14.23;;;;;;;;;;5032532;28;20429;-64
2023/05/05 07:10:36;;;;;;;15.77;14.23;;;845.70;1382.40;;;;;;5031668;28;20037;-65
2023/05/05 07:13:02;;;;;;;15.20;13.63;;;;;;;;;;5030224;28;20044;-65
2023/05/05 07:15:28;;;;;;;15.88;14.43;;;896.30;1305.60;;;;;;5029673;28;20033;-65
2023/05/05 07:17:54;;;;;;;15.55;13.60;;;;;;;;;;5042547;28;20025;-65
2023/05/05 07:20:19;;;;;;;17.52;15.05;;;998.80;1177.60;;;;;;5049815;28;20368;-65
2023/05/05 07:22:45;;;;;;;15.15;13.75;;;998.50;1177.60;;;;;;5050285;28;20074;-67
2023/05/05 07:25:11;;;;;;;16.33;14.45;;;1024.20;1126.40;;;;;;5049822;28;20064;-65
2023/05/05 07:27:37;;;;;;;14.10;12.80;;;1024.30;1152.00;;;;;;5049995;28;20025;-69
2023/05/05 07:30:03;;;;;;;14.52;13.07;;;947.70;1203.20;;;;;;5039580;28;20077;-64
2023/05/05 07:32:29;;;;;;;15.10;13.38;;;998.50;1177.60;;;;;;5029235;28;20051;-65
2023/05/05 07:34:55;;;;;;;15.40;13.90;;;999.20;1152.00;;;;;;5037298;28;20124;-65
2023/05/05 07:37:21;;;;;;;16.17;14.75;;;921.90;1254.40;;;;;;5049756;28;20021;-68
2023/05/05 07:39:47;;;;;;;14.10;12.88;;;;;;;;;;5050008;28;20106;-64
2023/05/05 07:42:13;;;;;;;15.07;13.77;;;896.40;1254.40;;;;;;5049667;28;20028;-65
2023/05/05 07:44:39;;;;;;;16.52;15.13;;;922.40;1228.80;;;;;;5049029;28;20064;-66
2023/05/05 07:47:05;;;;;;;17.38;14.68;;;1024.00;1126.40;;;;;;5049405;28;20102;-64
2023/05/05 07:49:31;;;;;;;16.67;15.27;;;1024.10;1126.40;;;;;;5030967;28;20379;-65
2023/05/05 07:51:56;;;;;;;17.83;16.30;;;973.70;1126.40;;;;;;5029809;28;20061;-64
2023/05/05 07:54:22;;;;;;;17.08;15.68;;;999.00;1126.40;;;;;;5029019;28;20120;-64
2023/05/05 07:56:48;;;;;;;15.45;14.18;;;999.00;1152.00;;;;;;5029826;28;20096;-63
2023/05/05 07:59:13;;;;;;;19.42;17.38;;;1075.30;1049.60;;;;;;5029348;28;20061;-64
2023/05/05 08:01:40;;;;;;;17.35;15.77;;;1024.20;1126.40;;;;;;5029193;28;20471;-65
2023/05/05 08:04:06;;;;;;;17.90;16.50;;;1024.50;1075.20;;;;;;5035249;28;20033;-65
2023/05/05 08:06:32;;;;;;;18.42;16.63;;;870.50;1280.00;;;;;;5032941;28;20032;-65
2023/05/05 08:09:01;;;;;;;18.60;16.88;;;947.70;1152.00;;;;;;5029474;28;20653;-64
2023/05/05 08:11:27;;;;;;;15.55;13.82;;;922.40;1177.60;;;;;;5029223;28;20041;-65
2023/05/05 08:13:52;;;;;;;17.48;13.85;;;948.10;1152.00;;;;;;5029098;28;20349;-64
2023/05/05 08:16:18;;;;;;;14.85;13.32;;;998.60;1152.00;;;;;;5032477;28;20112;-64
2023/05/05 08:18:44;;;;;;;13.57;12.45;;;947.40;1177.60;;;;;;5029305;28;20017;-64
2023/05/05 08:21:10;;;;;;;13.48;12.25;;;;;;;;;;5029041;28;20095;-63
2023/05/05 08:23:37;;;;;;;12.38;11.35;;;947.70;1152.00;;;;;;5049011;28;20025;-63
2023/05/05 08:26:10;;;;;;;13.50;12.32;;;922.10;1203.20;;;;;;5049101;28;20060;-65
2023/05/05 08:28:36;;;;;;;15.50;13.75;;;871.00;1280.00;;;;;;5049134;28;20031;-64
2023/05/05 08:31:03;;;;;;;14.27;12.98;;;845.00;1382.40;;;;;;5044707;28;20442;-63
2023/05/05 08:33:28;;;;;;;15.18;13.63;;;794.20;1408.00;;;;;;5028983;28;20502;-64
2023/05/05 08:35:54;;;;;;;15.27;13.82;;;793.60;1459.20;;;;;;5029400;28;20029;-62
2023/05/05 08:38:20;;;;;;;14.13;12.82;;;743.20;1536.00;;;;;;5029080;28;20529;-65
2023/05/05 08:40:46;;;;;;;15.13;13.63;;;743.00;1561.60;;;;;;5029329;28;20041;-63
2023/05/05 08:43:12;;;;;;;14.27;12.98;;;742.80;1587.20;;;;;;5028869;28;20022;-63
2023/05/05 08:45:41;;;;;;;19.17;17.38;;;717.50;1612.80;;;;;;5031040;28;20752;-62
2023/05/05 08:48:08;;;;;;;17.08;15.45;;;717.60;1536.00;;;;;;5049052;28;20356;-63
2023/05/05 08:50:36;;;;;;;18.85;16.85;;;717.60;1536.00;;;;;;5048753;28;20017;-62
2023/05/05 08:53:10;;;;;;;16.42;14.82;;;717.20;1561.60;;;;;;5048587;28;20040;-63
2023/05/05 08:55:51;;;;;;;21.02;16.65;;;716.90;1638.40;;;;;;5048484;28;20183;-62
2023/05/05 08:58:23;;;;;;;17.83;16.02;;;691.20;1664.00;;;;;;5048780;28;20115;-66
2023/05/05 09:00:50;;;;;;;17.92;16.10;;;666.20;1689.60;;;;;;5040356;28;20030;-64
2023/05/05 09:03:17;;;;;;;16.35;14.73;;;666.00;1715.20;;;;;;5028850;28;20100;-64
2023/05/05 09:05:43;;;;;;;16.52;14.98;;;666.00;1740.80;;;;;;5028620;28;20438;-64
2023/05/05 09:08:12;;;;;;;20.42;16.42;;;666.20;1715.20;;;;;;5028588;28;20044;-62
2023/05/05 09:10:43;;;;;;;25.65;18.23;;;691.30;1664.00;;;;;;5028981;28;20030;-63
2023/05/05 09:13:09;;;;;;;73.70;53.80;;;666.50;1664.00;;;;;;5028390;28;20797;-63
2023/05/05 09:15:37;;;;;;;28.77;25.83;;;666.20;1664.00;;;;;;5028819;28;20033;-68
2023/05/05 09:18:07;;;;;;;64.47;58.47;;;665.90;1664.00;;;;;;5028459;28;20032;-65
2023/05/05 09:20:37;;;;;;;50.03;39.40;;;665.90;1664.00;;;;;;5028469;28;20472;-67
2023/05/05 09:23:17;;;;;;;21.60;19.52;;;665.70;1689.60;;;;;;5034931;28;20036;-62
2023/05/05 09:26:03;;;;;;;17.02;14.43;;;640.80;1689.60;;;;;;5051548;28;20036;-64
2023/05/05 09:28:29;;;;;;;16.15;14.43;;;640.40;1689.60;;;;;;5042350;28;20382;-67
2023/05/05 09:31:10;;;;;;;15.52;13.93;;;640.30;1715.20;;;;;;5031868;28;20025;-64
2023/05/05 09:33:36;;;;;;;15.48;14.07;;;614.80;1740.80;;;;;;5031054;28;20030;-63
2023/05/05 09:36:02;;;;;;;13.80;9.95;;;615.30;1689.60;;;;;;5044536;28;20387;-64
2023/05/05 09:38:27;;;;;;;19.95;17.67;;;614.60;1740.80;;;;;;5037564;28;20034;-63
2023/05/05 09:40:53;;;;;;;12.50;9.32;;;615.30;1715.20;;;;;;5030875;28;20087;-65
2023/05/05 09:43:21;;;;;;;13.13;11.82;;;640.10;1664.00;;;;;;5031273;28;20104;-63
2023/05/05 09:45:48;;;;;;;11.35;10.02;;;614.70;1740.80;;;;;;5040967;28;20124;-63
2023/05/05 09:48:27;;;;;;;12.68;11.35;;;614.90;1715.20;;;;;;5051803;28;20458;-68
2023/05/05 09:50:54;;;;;;;11.10;9.98;;;640.10;1766.40;;;;;;5051511;28;20112;-63
2023/05/05 09:53:20;;;;;;;8.40;7.50;;;640.20;1689.60;;;;;;5041245;28;20479;-65
2023/05/05 09:55:59;;;;;;;8.43;7.18;;;615.20;1664.00;;;;;;5048044;28;20076;-65
2023/05/05 09:58:29;;;;;;;11.80;7.80;;;615.00;1664.00;;;;;;5037739;28;20027;-63
2023/05/05 10:00:57;;;;;;;10.35;8.65;;;615.30;1664.00;;;;;;5049266;28;20056;-65
2023/05/05 10:03:23;;;;;;;8.18;7.30;;;615.10;1664.00;;;;;;5031113;28;20482;-65
2023/05/05 10:05:50;;;;;;;20.15;9.48;;;614.60;1689.60;;;;;;5033277;28;20435;-63
2023/05/05 10:08:21;;;;;;;9.85;8.15;;;589.60;1715.20;;;;;;5051269;28;20013;-63
2023/05/05 10:10:54;;;;;;;11.07;9.07;;;589.50;1740.80;;;;;;5051635;28;20116;-63
2023/05/05 10:13:21;;;;;;;10.00;8.95;;;589.20;1740.80;;;;;;5051448;28;20478;-63
2023/05/05 10:15:55;;;;;;;9.05;7.57;;;589.30;1740.80;;;;;;5051355;28;20071;-63
2023/05/05 10:18:24;;;;;;;12.00;8.00;;;589.70;1715.20;;;;;;5050871;28;20028;-63
2023/05/05 10:20:57;;;;;;;9.48;8.32;;;589.60;1715.20;;;;;;5050834;28;20017;-64
2023/05/05 10:23:45;;;;;;;13.50;9.23;;;589.60;1715.20;;;;;;5051339;28;20670;-68
2023/05/05 10:26:12;;;;;;;9.20;8.30;;;589.40;1740.80;;;;;;5051184;28;20039;-63
2023/05/05 10:28:49;;;;;;;13.13;8.52;;;589.40;1715.20;;;;;;5051096;28;20021;-63
2023/05/05 10:31:57;;;;;;;11.38;9.30;;;589.40;1715.20;;;;;;5026722;28;20075;-63
2023/05/05 10:34:29;;;;;;;9.85;8.82;;;589.40;1740.80;;;;;;4969782;28;20046;-63
2023/05/05 10:36:56;;;;;;;11.07;10.05;;;614.40;1715.20;;;;;;4969699;28;20389;-63
2023/05/05 10:39:23;;;;;;;10.75;9.73;;;589.70;1740.80;;;;;;4969577;28;20456;-64
2023/05/05 10:41:51;;;;;;;12.20;9.85;;;589.40;1740.80;;;;;;4969762;28;20030;-63
2023/05/05 10:44:18;;;;;;;9.82;8.70;;;589.50;1740.80;;;;;;4969736;28;20066;-63
2023/05/05 10:46:44;;;;;;;11.93;9.32;;;614.40;1740.80;;;;;;4969427;28;20066;-63
2023/05/05 10:49:41;;;;;;;16.13;9.00;;;614.60;1740.80;;;;;;4969576;28;20501;-64
2023/05/05 10:52:45;;;;;;;10.65;9.48;;;614.70;1740.80;;;;;;4969344;28;20117;-62
2023/05/05 10:55:19;;;;;;;11.60;9.00;;;614.40;1766.40;;;;;;4968798;28;20089;-63
2023/05/05 10:57:50;;;;;;;12.40;10.48;;;589.60;1766.40;;;;;;4969389;28;20038;-63
2023/05/05 11:00:37;;;;;;;11.40;9.93;;;589.60;1740.80;;;;;;4969474;28;20026;-62
2023/05/05 11:03:15;;;;;;;11.27;9.35;;;589.00;1792.00;;;;;;4968864;28;20738;-62
2023/05/05 11:06:02;;;;;;;10.43;9.25;;;588.90;1792.00;;;;;;4969144;28;20073;-67
2023/05/05 11:08:29;;;;;;;9.75;8.70;;;589.50;1740.80;;;;;;4969055;28;20520;-63
2023/05/05 11:10:55;;;;;;;10.65;9.05;;;589.70;1715.20;;;;;;5046280;28;20025;-63
2023/05/05 11:13:21;;;;;;;10.77;8.82;;;589.40;1766.40;;;;;;5050338;28;20079;-63
2023/05/05 11:15:48;;;;;;;14.77;9.35;;;589.50;1766.40;;;;;;5049919;28;20021;-63
2023/05/05 11:18:36;;;;;;;10.50;9.40;;;589.10;1766.40;;;;;;5050282;28;20430;-63
2023/05/05 11:21:14;;;;;;;12.18;9.73;;;589.00;1740.80;;;;;;5049593;28;20550;-64
2023/05/05 11:23:47;;;;;;;14.13;10.68;;;589.10;1766.40;;;;;;5049736;28;20489;-62
2023/05/05 11:26:14;;;;;;;10.05;8.80;;;564.10;1792.00;;;;;;5049576;28;20120;-66
2023/05/05 11:28:56;;;;;;;10.85;9.73;;;564.10;1792.00;;;;;;5049549;28;20104;-63
2023/05/05 11:31:22;;;;;;;11.88;8.73;;;564.10;1766.40;;;;;;5049809;28;20552;-63
2023/05/05 11:33:48;;;;;;;9.88;8.50;;;588.80;1792.00;;;;;;5049791;28;20028;-63
2023/05/05 11:36:16;;;;;;;9.48;7.78;;;589.00;1766.40;;;;;;5050140;28;20074;-68
2023/05/05 11:39:06;;;;;;;9.73;8.82;;;589.20;1715.20;;;;;;5049575;28;20032;-63
2023/05/05 11:41:37;;;;;;;12.98;9.82;;;589.20;1740.80;;;;;;5049375;28;20474;-62
2023/05/05 11:44:28;;;;;;;10.32;8.82;;;588.90;1766.40;;;;;;5049199;28;20013;-67
2023/05/05 11:46:53;;;;;;;10.73;9.63;;;589.00;1740.80;;;;;;5048667;28;20049;-63
2023/05/05 11:49:36;;;;;;;12.20;9.00;;;589.10;1766.40;;;;;;5049579;28;20060;-63
2023/05/05 11:52:04;;;;;;;13.30;9.67;;;588.90;1740.80;;;;;;5049327;28;20033;-66
2023/05/05 11:54:30;;;;;;;10.98;9.23;;;588.80;1740.80;;;;;;5049053;28;20167;-63
2023/05/05 11:57:03;;;;;;;11.23;9.32;;;589.10;1740.80;;;;;;5046773;28;20506;-62
2023/05/05 11:59:31;;;;;;;17.10;8.88;;;589.00;1715.20;;;;;;5029175;28;20471;-63
2023/05/05 12:01:57;;;;;;;9.55;8.60;;;589.20;1689.60;;;;;;5046072;28;20108;-61
2023/05/05 12:04:23;;;;;;;9.90;9.00;;;589.00;1689.60;;;;;;5049062;28;20364;-68
2023/05/05 12:06:48;;;;;;;8.80;8.00;;;589.10;1715.20;;;;;;5049081;28;20024;-64
2023/05/05 12:09:19;;;;;;;11.27;8.45;;;589.10;1715.20;;;;;;5047087;28;20029;-60
2023/05/05 12:11:48;;;;;;;11.18;9.05;;;589.40;1766.40;;;;;;5026983;28;20033;-61
2023/05/05 12:14:14;;;;;;;11.02;9.27;;;589.20;1766.40;;;;;;5030791;28;20027;-60
2023/05/05 12:16:40;;;;;;;9.45;8.52;;;589.40;1715.20;;;;;;5047624;28;20044;-60
2023/05/05 12:19:07;;;;;;;9.15;8.20;;;589.50;1638.40;;;;;;5047962;28;20082;-60
2023/05/05 12:21:34;;;;;;;8.40;7.60;;;589.10;1638.40;;;;;;5047575;28;20140;-61